Martin Challenger — WDB2346 — position and weather

sailwx.info

Track history (hours):
 
Tides and Currents Weather Stations Pressure Air Temp Water Temp Dewpoint Dewpoint Depression Visibility Wind Speed Wind Dir Waves Ship Positions

Martin Challenger

Owner: MARTIN OPERATING PARTNERSHIP LP, VIDOR, TX. More information available from US FCC via Universal Licensing System and Coast Guard Vessel Documentation Center.

Last reported at 2017-Jan-25 00:19 UTC. Time now 2017-Jan-25 01:29 UTC.
Position N 29°47' W 095°04'.

Length 20 m.

MMSI: 366874920.

Date/timePositionNaut miles runAvg speedWind from/ knotsBaromVisibWave heightAir tempDewpointWater temp
2017-Jan-25 00:19N 29°47' W 095°04'1 0.0
2017-Jan-23 22:05N 29°47' W 095°06'0 0.0
2017-Jan-23 20:33N 29°47' W 095°06'0 0.0
2017-Jan-23 19:12N 29°47' W 095°06'0 0.0
2017-Jan-23 18:19N 29°47' W 095°06'0 0.0
2017-Jan-23 17:25N 29°47' W 095°06'0 0.0
2017-Jan-22 22:24N 29°47' W 095°06'0 0.0
2017-Jan-22 19:30N 29°47' W 095°06'0 0.0
2017-Jan-22 18:24N 29°47' W 095°06'0 0.0
2017-Jan-22 17:33N 29°47' W 095°06'0 0.0
2017-Jan-22 16:33N 29°47' W 095°06'0 0.0
2017-Jan-22 15:33N 29°47' W 095°06'0 0.0
2017-Jan-22 14:33N 29°47' W 095°06'0 0.0
2017-Jan-22 13:33N 29°47' W 095°06'0 0.0
2017-Jan-22 04:26N 29°47' W 095°06'0 0.0
2017-Jan-22 03:33N 29°47' W 095°06'0 0.0
2017-Jan-21 23:33N 29°47' W 095°06'0 0.0
2017-Jan-21 22:33N 29°47' W 095°06'0 0.0
2017-Jan-21 21:33N 29°47' W 095°06'0 0.0
2017-Jan-21 20:33N 29°47' W 095°06'0 0.0
2017-Jan-21 19:17N 29°47' W 095°06'0 0.0
2017-Jan-21 15:32N 29°47' W 095°06'1 0.1
2017-Jan-20 23:19N 29°47' W 095°04'2 2.2
2017-Jan-20 22:33N 29°45' W 095°04'4 4.0
2017-Jan-20 21:33N 29°42' W 095°01'5 4.5
2017-Jan-20 20:33N 29°39' W 094°58'5 5.3
2017-Jan-20 19:33N 29°34' W 094°55'5 5.4
2017-Jan-20 18:33N 29°29' W 094°52'7 3.1
2017-Jan-20 16:25N 29°23' W 094°52'  
2017-Jan-17 22:28N 29°22' W 094°53'0 0.1
2017-Jan-17 20:25N 29°22' W 094°53'0 0.2
2017-Jan-17 19:30N 29°22' W 094°53'0 0.0
2017-Jan-17 18:26N 29°22' W 094°53'4 0.2
2017-Jan-16 17:17N 29°25' W 094°50'4 5.4
2017-Jan-16 16:33N 29°28' W 094°51'5 5.2
2017-Jan-16 15:33N 29°33' W 094°54'4 3.9
2017-Jan-16 14:33N 29°36' W 094°57'4 4.4
2017-Jan-16 13:33N 29°40' W 094°59'4 3.3
2017-Jan-16 12:11N 29°44' W 095°01'0 0.0
2017-Jan-15 23:28N 29°44' W 095°01'0 0.0
2017-Jan-15 22:32N 29°44' W 095°01'0 0.0
2017-Jan-15 21:33N 29°44' W 095°01'0 0.0
2017-Jan-15 20:33N 29°44' W 095°01'0 0.0
2017-Jan-15 19:33N 29°44' W 095°01'0 0.0
2017-Jan-15 18:33N 29°44' W 095°01'0 0.0
2017-Jan-15 17:33N 29°44' W 095°01'0 0.0
2017-Jan-15 16:33N 29°44' W 095°01'0 0.0
2017-Jan-15 15:33N 29°44' W 095°01'0 0.0
2017-Jan-15 14:33N 29°44' W 095°01'0 0.5
2017-Jan-15 13:33N 29°44' W 095°02'  
Track history (hours):
 
Tides and Currents Weather Stations Pressure Air Temp Water Temp Dewpoint Dewpoint Depression Visibility Wind Speed Wind Dir Waves Ship Positions

Martin Challenger

Owner: MARTIN OPERATING PARTNERSHIP LP, VIDOR, TX. More information available from US FCC via Universal Licensing System and Coast Guard Vessel Documentation Center.

Last reported at 2017-Jan-25 00:19 UTC. Time now 2017-Jan-25 01:29 UTC.
Position N 29°47' W 095°04'.

Length 20 m.

MMSI: 366874920.

Date/timePositionNaut miles runAvg speedWind from/ knotsBaromVisibWave heightAir tempDewpointWater temp
2017-Jan-25 00:19N 29°47' W 095°04'1 0.0
2017-Jan-23 22:05N 29°47' W 095°06'0 0.0
2017-Jan-23 20:33N 29°47' W 095°06'0 0.0
2017-Jan-23 19:12N 29°47' W 095°06'0 0.0
2017-Jan-23 18:19N 29°47' W 095°06'0 0.0
2017-Jan-23 17:25N 29°47' W 095°06'0 0.0
2017-Jan-22 22:24N 29°47' W 095°06'0 0.0
2017-Jan-22 19:30N 29°47' W 095°06'0 0.0
2017-Jan-22 18:24N 29°47' W 095°06'0 0.0
2017-Jan-22 17:33N 29°47' W 095°06'0 0.0
2017-Jan-22 16:33N 29°47' W 095°06'0 0.0
2017-Jan-22 15:33N 29°47' W 095°06'0 0.0
2017-Jan-22 14:33N 29°47' W 095°06'0 0.0
2017-Jan-22 13:33N 29°47' W 095°06'0 0.0
2017-Jan-22 04:26N 29°47' W 095°06'0 0.0
2017-Jan-22 03:33N 29°47' W 095°06'0 0.0
2017-Jan-21 23:33N 29°47' W 095°06'0 0.0
2017-Jan-21 22:33N 29°47' W 095°06'0 0.0
2017-Jan-21 21:33N 29°47' W 095°06'0 0.0
2017-Jan-21 20:33N 29°47' W 095°06'0 0.0
2017-Jan-21 19:17N 29°47' W 095°06'0 0.0
2017-Jan-21 15:32N 29°47' W 095°06'1 0.1
2017-Jan-20 23:19N 29°47' W 095°04'2 2.2
2017-Jan-20 22:33N 29°45' W 095°04'4 4.0
2017-Jan-20 21:33N 29°42' W 095°01'5 4.5
2017-Jan-20 20:33N 29°39' W 094°58'5 5.3
2017-Jan-20 19:33N 29°34' W 094°55'5 5.4
2017-Jan-20 18:33N 29°29' W 094°52'7 3.1
2017-Jan-20 16:25N 29°23' W 094°52'  
2017-Jan-17 22:28N 29°22' W 094°53'0 0.1
2017-Jan-17 20:25N 29°22' W 094°53'0 0.2
2017-Jan-17 19:30N 29°22' W 094°53'0 0.0
2017-Jan-17 18:26N 29°22' W 094°53'4 0.2
2017-Jan-16 17:17N 29°25' W 094°50'4 5.4
2017-Jan-16 16:33N 29°28' W 094°51'5 5.2
2017-Jan-16 15:33N 29°33' W 094°54'4 3.9
2017-Jan-16 14:33N 29°36' W 094°57'4 4.4
2017-Jan-16 13:33N 29°40' W 094°59'4 3.3
2017-Jan-16 12:11N 29°44' W 095°01'0 0.0
2017-Jan-15 23:28N 29°44' W 095°01'0 0.0
2017-Jan-15 22:32N 29°44' W 095°01'0 0.0
2017-Jan-15 21:33N 29°44' W 095°01'0 0.0
2017-Jan-15 20:33N 29°44' W 095°01'0 0.0
2017-Jan-15 19:33N 29°44' W 095°01'0 0.0
2017-Jan-15 18:33N 29°44' W 095°01'0 0.0
2017-Jan-15 17:33N 29°44' W 095°01'0 0.0
2017-Jan-15 16:33N 29°44' W 095°01'0 0.0
2017-Jan-15 15:33N 29°44' W 095°01'0 0.0
2017-Jan-15 14:33N 29°44' W 095°01'0 0.5
2017-Jan-15 13:33N 29°44' W 095°02'  

Dump ship's entire track history